Time;durP1;ratioP1;P1;durP2;ratioP2;P2;SDS_P1;SDS_P2;PMS_P1;PMS_P2;Temp;Humidity;BMP_temperature;BMP_pressure;BME280_temperature;BME280_humidity;BME280_pressure;Samples;Min_cycle;Max_cycle;Signal;HPM_P1;HPM_P2
2022/11/12 00:00:16;;;;;;;11.52;7.03;;;;;;;9.59;79.93;100969.84;4904486;29;20038;-93
2022/11/12 00:02:41;;;;;;;12.32;6.78;;;;;;;9.53;79.51;100964.53;4905883;29;20031;-93
2022/11/12 00:05:07;;;;;;;11.80;7.03;;;;;;;9.39;79.80;100945.00;4904442;29;20035;-93
2022/11/12 00:07:33;;;;;;;12.10;7.07;;;;;;;9.52;80.14;100961.00;4901648;29;20500;-93
2022/11/12 00:09:58;;;;;;;14.90;7.68;;;;;;;9.56;79.64;100953.31;4900777;29;20091;-94
2022/11/12 00:12:24;;;;;;;13.00;8.23;;;;;;;9.61;79.40;100948.94;4894514;29;20502;-93
2022/11/12 00:14:49;;;;;;;15.00;7.40;;;;;;;9.63;79.46;100962.13;4891176;29;20031;-94
2022/11/12 00:17:18;;;;;;;13.63;7.55;;;;;;;9.50;80.04;100955.03;4902373;29;20062;-93
2022/11/12 00:19:43;;;;;;;13.50;7.72;;;;;;;9.52;79.67;100942.19;4897966;28;20038;-93
2022/11/12 00:22:08;;;;;;;17.63;8.90;;;;;;;9.61;79.64;100950.81;4897905;29;20028;-93
2022/11/12 00:24:34;;;;;;;11.95;7.85;;;;;;;9.49;79.86;100938.06;4905007;29;20502;-94
2022/11/12 00:27:00;;;;;;;15.57;8.50;;;;;;;9.64;79.62;100951.16;4907181;29;20406;-93
2022/11/12 00:29:25;;;;;;;13.77;8.15;;;;;;;9.68;79.47;100952.34;4901550;29;20038;-92
2022/11/12 00:31:50;;;;;;;15.77;8.63;;;;;;;9.70;79.50;100958.34;4900479;29;20031;-93
2022/11/12 00:34:17;;;;;;;14.05;8.52;;;;;;;9.68;79.29;100960.44;4906621;29;20034;-94
2022/11/12 00:36:42;;;;;;;13.70;7.82;;;;;;;9.57;79.39;100950.41;4915008;29;20035;-93
2022/11/12 00:39:08;;;;;;;12.57;8.45;;;;;;;9.53;80.10;100954.59;4896672;29;20035;-93
2022/11/12 00:41:33;;;;;;;15.88;8.40;;;;;;;9.50;79.55;100939.75;4905449;29;20114;-93
2022/11/12 00:43:59;;;;;;;13.57;7.50;;;;;;;9.53;80.09;100945.72;4899033;29;20039;-93
2022/11/12 00:46:24;;;;;;;13.48;8.52;;;;;;;9.46;80.50;100943.91;4900413;29;20509;-93
2022/11/12 00:48:50;;;;;;;13.32;7.32;;;;;;;9.54;79.91;100940.09;4903077;29;20120;-94
2022/11/12 00:51:15;;;;;;;14.20;8.07;;;;;;;9.81;78.97;100966.72;4902959;29;20031;-94
2022/11/12 00:53:41;;;;;;;14.52;8.43;;;;;;;9.66;79.23;100943.69;4905256;29;20394;-93
2022/11/12 00:56:07;;;;;;;14.93;8.50;;;;;;;9.78;78.97;100956.41;4905900;29;20042;-93
2022/11/12 00:58:33;;;;;;;12.48;8.13;;;;;;;9.61;78.97;100927.41;4895015;29;20031;-93
2022/11/12 01:01:09;;;;;;;12.90;7.80;;;;;;;9.78;78.60;100953.72;4893465;29;20486;-93
2022/11/12 01:03:36;;;;;;;14.27;8.10;;;;;;;9.76;78.98;100940.50;4892988;29;20024;-93
2022/11/12 01:06:03;;;;;;;14.25;8.30;;;;;;;9.79;78.99;100941.91;4898625;29;20082;-93
2022/11/12 01:08:29;;;;;;;12.15;7.30;;;;;;;9.84;78.83;100942.06;4895943;29;20043;-93
2022/11/12 01:10:54;;;;;;;18.33;8.35;;;;;;;9.86;78.87;100945.34;4892561;29;20586;-93
2022/11/12 01:13:20;;;;;;;13.93;8.38;;;;;;;9.80;79.19;100938.19;4893629;29;20036;-94
2022/11/12 01:15:48;;;;;;;15.48;8.50;;;;;;;9.78;79.02;100935.72;4894806;29;20557;-94
2022/11/12 01:18:14;;;;;;;14.13;8.45;;;;;;;9.71;79.42;100943.00;4917907;29;20031;-94
2022/11/12 01:20:40;;;;;;;13.93;8.00;;;;;;;9.71;79.11;100930.41;4895751;29;20103;-95
2022/11/12 01:23:05;;;;;;;11.77;7.65;;;;;;;9.73;79.71;100938.22;4899639;29;20023;-94
2022/11/12 01:25:31;;;;;;;12.98;8.55;;;;;;;9.63;79.22;100932.53;4897879;29;20007;-94
2022/11/12 01:27:57;;;;;;;11.10;7.72;;;;;;;9.71;79.43;100945.69;4899552;29;20019;-94
2022/11/12 01:30:22;;;;;;;13.82;8.85;;;;;;;9.62;80.21;100933.59;4902397;29;20027;-94
2022/11/12 01:32:50;;;;;;;14.68;8.70;;;;;;;9.74;79.49;100934.50;4889082;29;20027;-94
2022/11/12 01:35:16;;;;;;;13.55;8.20;;;;;;;9.59;80.11;100909.88;4901119;29;20031;-94
2022/11/12 01:37:41;;;;;;;13.13;8.15;;;;;;;9.56;79.79;100897.66;4900272;29;20038;-95
2022/11/12 01:40:07;;;;;;;21.40;9.68;;;;;;;9.67;79.43;100926.53;4898095;29;20482;-94
2022/11/12 01:42:33;;;;;;;14.57;8.02;;;;;;;9.50;80.01;100906.63;4901386;29;20023;-94
2022/11/12 01:44:58;;;;;;;15.48;8.93;;;;;;;9.64;79.66;100918.06;4906819;29;20026;-93
2022/11/12 01:47:32;;;;;;;12.38;7.68;;;;;;;9.66;79.19;100915.97;4895599;29;20031;-94
2022/11/12 01:50:14;;;;;;;13.75;8.60;;;;;;;9.75;79.73;100936.13;4915051;29;20506;-94
2022/11/12 01:52:45;;;;;;;16.50;8.65;;;;;;;9.58;79.64;100918.97;4922142;29;20023;-93
2022/11/12 01:55:13;;;;;;;16.73;9.50;;;;;;;9.51;79.63;100914.47;4904835;29;20577;-93
2022/11/12 01:58:01;;;;;;;14.32;9.20;;;;;;;9.49;80.21;100916.56;4891310;29;20023;-93
2022/11/12 02:00:26;;;;;;;18.17;9.20;;;;;;;9.62;80.03;100923.66;4907617;29;20035;-93
2022/11/12 02:02:54;;;;;;;15.20;8.98;;;;;;;9.62;80.12;100931.72;4914301;29;20027;-93
2022/11/12 02:05:20;;;;;;;15.68;9.00;;;;;;;9.64;80.30;100918.88;4906138;29;20027;-93
2022/11/12 02:07:45;;;;;;;16.17;9.02;;;;;;;9.64;80.09;100920.75;4905045;29;20539;-94
2022/11/12 02:10:11;;;;;;;18.27;10.73;;;;;;;9.61;80.34;100932.78;4917710;29;20031;-93
2022/11/12 02:15:20;;;;;;;16.65;9.02;;;;;;;9.64;80.39;100926.13;4926674;29;20438;-94
2022/11/12 02:17:46;;;;;;;17.45;9.75;;;;;;;9.66;79.91;100922.16;4898647;29;20126;-93
2022/11/12 02:20:12;;;;;;;19.10;9.40;;;;;;;9.70;80.67;100927.94;4893891;29;20031;-94
2022/11/12 02:22:37;;;;;;;16.23;9.40;;;;;;;9.81;79.93;100937.94;4914325;29;20031;-93
2022/11/12 02:25:03;;;;;;;19.50;10.13;;;;;;;9.77;80.21;100931.34;4896916;29;20028;-93
2022/11/12 02:27:29;;;;;;;19.52;10.10;;;;;;;9.69;81.08;100929.81;4897197;29;20074;-93
2022/11/12 02:29:54;;;;;;;19.52;11.05;;;;;;;9.79;80.06;100921.19;4905354;29;20031;-93
2022/11/12 02:32:19;;;;;;;18.80;10.35;;;;;;;9.78;79.99;100918.75;4895909;29;20027;-93
2022/11/12 02:34:45;;;;;;;17.42;9.43;;;;;;;9.85;79.96;100936.44;4905220;29;20035;-92
2022/11/12 02:37:10;;;;;;;18.75;10.27;;;;;;;9.90;79.77;100936.59;4915910;29;20031;-94
2022/11/12 02:39:36;;;;;;;17.60;9.88;;;;;;;9.75;79.89;100928.06;4919353;29;20035;-93
2022/11/12 02:42:01;;;;;;;18.55;10.40;;;;;;;9.88;79.65;100936.00;4900823;29;20023;-93
2022/11/12 02:44:27;;;;;;;15.90;9.68;;;;;;;9.78;79.85;100913.38;4907852;29;20505;-93
2022/11/12 02:46:52;;;;;;;18.90;10.40;;;;;;;9.95;79.29;100940.47;4916483;29;20035;-92
2022/11/12 02:49:18;;;;;;;16.80;9.85;;;;;;;9.85;79.24;100931.06;4907734;29;20055;-93
2022/11/12 02:51:43;;;;;;;21.20;10.77;;;;;;;9.81;79.54;100927.16;4900365;29;20031;-94
2022/11/12 02:54:09;;;;;;;20.35;10.07;;;;;;;9.74;80.25;100914.88;4896581;29;20027;-92
2022/11/12 02:56:35;;;;;;;19.35;10.68;;;;;;;9.70;80.77;100920.69;4900094;29;20093;-93
2022/11/12 02:59:00;;;;;;;22.08;11.50;;;;;;;9.76;79.97;100916.28;4910079;29;20035;-93
2022/11/12 03:01:26;;;;;;;21.67;10.50;;;;;;;9.78;79.74;100924.94;4906354;29;20087;-93
2022/11/12 03:03:51;;;;;;;17.83;10.38;;;;;;;9.73;80.11;100918.59;4915825;29;20031;-93
2022/11/12 03:06:17;;;;;;;17.30;10.40;;;;;;;9.69;80.31;100910.13;4896689;29;20046;-93
2022/11/12 03:08:42;;;;;;;17.23;9.32;;;;;;;9.76;80.40;100921.66;4917020;29;20038;-93
2022/11/12 03:11:09;;;;;;;17.27;10.27;;;;;;;9.83;79.25;100927.78;4914357;29;20039;-93
2022/11/12 03:13:35;;;;;;;16.48;9.80;;;;;;;9.74;79.72;100925.63;4898589;29;20031;-93
2022/11/12 03:16:01;;;;;;;18.02;10.20;;;;;;;9.77;80.07;100930.53;4905372;29;20470;-92
2022/11/12 03:18:26;;;;;;;19.85;10.27;;;;;;;9.67;80.02;100901.47;4905231;29;20024;-92
2022/11/12 03:20:52;;;;;;;19.48;11.43;;;;;;;9.59;80.41;100907.19;4922161;29;20042;-91
2022/11/12 03:23:17;;;;;;;16.17;9.30;;;;;;;9.64;80.34;100901.94;4902627;29;20070;-92
2022/11/12 03:25:43;;;;;;;19.58;11.27;;;;;;;9.59;80.88;100907.19;4898126;29;20035;-92
2022/11/12 03:28:10;;;;;;;16.02;9.70;;;;;;;9.55;80.84;100903.28;4906451;29;20055;-92
2022/11/12 03:30:37;;;;;;;18.20;10.48;;;;;;;9.45;81.16;100901.13;4914843;29;20062;-92
2022/11/12 03:33:03;;;;;;;18.88;10.43;;;;;;;9.61;81.16;100915.84;4903007;29;20481;-92
2022/11/12 03:35:29;;;;;;;22.60;12.15;;;;;;;9.70;80.56;100926.06;4910362;29;20027;-92
2022/11/12 03:37:54;;;;;;;18.50;10.85;;;;;;;9.67;80.43;100928.38;4904730;29;20035;-92
2022/11/12 03:40:30;;;;;;;19.98;12.07;;;;;;;9.66;80.37;100922.16;4914209;29;20057;-92
2022/11/12 03:42:56;;;;;;;22.05;11.43;;;;;;;9.56;80.78;100918.38;4920265;29;20038;-92
2022/11/12 03:45:22;;;;;;;20.60;11.32;;;;;;;9.66;79.69;100921.34;4919804;29;20027;-92
2022/11/12 03:47:49;;;;;;;19.75;11.23;;;;;;;9.73;79.76;100922.09;4918419;29;20150;-93
2022/11/12 03:50:15;;;;;;;22.27;11.85;;;;;;;9.81;79.27;100927.16;4897667;29;20059;-92
2022/11/12 03:52:48;;;;;;;19.95;12.10;;;;;;;9.72;78.92;100917.78;4897304;29;20110;-93
2022/11/12 03:55:14;;;;;;;17.05;11.20;;;;;;;9.76;79.48;100931.59;4902582;29;20558;-93
2022/11/12 03:57:40;;;;;;;23.83;11.35;;;;;;;9.81;79.77;100931.75;4902430;29;20058;-93
2022/11/12 04:00:06;;;;;;;22.30;11.32;;;;;;;9.73;79.01;100930.16;4900945;29;20035;-93
2022/11/12 04:02:32;;;;;;;18.85;10.43;;;;;;;9.65;79.53;100912.47;4907511;29;20034;-92
2022/11/12 04:10:25;;;;;;;20.13;11.63;;;;;;;9.79;79.92;100939.22;4923602;29;20115;-93
2022/11/12 04:15:34;;;;;;;18.65;10.95;;;;;;;9.76;80.76;100947.75;4924878;29;20058;-92
2022/11/12 04:21:49;;;;;;;21.05;12.13;;;;;;;9.73;81.69;100940.09;4917171;29;20054;-93
2022/11/12 04:23:32;;;;;;;24.10;12.45;;;;;;;9.61;81.96;100924.72;4929653;29;20038;-92
2022/11/12 04:31:30;;;;;;;21.27;12.48;;;;;;;9.64;80.32;100932.34;4918077;29;20042;-93
2022/11/12 04:34:27;;;;;;;24.98;12.90;;;;;;;9.77;80.01;100938.63;4899855;29;20410;-92
2022/11/12 04:36:41;;;;;;;19.10;11.98;;;;;;;9.78;79.59;100935.72;4921592;29;20484;-93
2022/11/12 04:39:06;;;;;;;18.73;11.50;;;;;;;9.84;79.52;100940.19;4894789;29;20034;-93
2022/11/12 04:46:59;;;;;;;22.08;13.05;;;;;;;9.88;79.89;100946.75;4927387;29;20111;-92
2022/11/12 04:49:25;;;;;;;20.85;11.23;;;;;;;9.89;79.53;100944.88;4907315;29;20499;-92
2022/11/12 04:52:05;;;;;;;23.92;12.77;;;;;;;9.93;79.56;100934.50;4898956;29;20030;-92
2022/11/12 04:54:31;;;;;;;21.15;12.75;;;;;;;9.96;79.16;100944.81;4908897;29;20402;-93
2022/11/12 04:56:57;;;;;;;21.38;12.95;;;;;;;9.92;79.01;100941.75;4899957;29;20027;-93
2022/11/12 04:59:22;;;;;;;22.30;11.93;;;;;;;9.90;79.19;100950.06;4911640;29;20031;-92
2022/11/12 05:01:49;;;;;;;19.08;12.45;;;;;;;9.83;79.03;100935.84;4907012;29;20031;-93
2022/11/12 05:04:14;;;;;;;24.48;13.98;;;;;;;9.83;79.25;100935.03;4900560;29;20039;-90
2022/11/12 05:06:52;;;;;;;24.50;13.35;;;;;;;9.77;79.29;100934.03;4904053;29;20038;-93
2022/11/12 05:09:23;;;;;;;26.13;13.18;;;;;;;9.80;79.13;100947.06;4898030;29;20110;-93
2022/11/12 05:11:48;;;;;;;25.67;12.85;;;;;;;9.75;79.54;100935.31;4898532;29;20039;-92
2022/11/12 05:14:14;;;;;;;25.30;13.38;;;;;;;9.89;79.44;100958.34;4898555;29;20042;-93
2022/11/12 05:16:39;;;;;;;26.08;14.15;;;;;;;9.85;79.08;100949.06;4904386;29;20122;-93
2022/11/12 05:19:05;;;;;;;24.23;13.18;;;;;;;9.71;79.51;100935.78;4898184;29;20027;-92
2022/11/12 05:24:14;;;;;;;23.30;13.00;;;;;;;9.94;78.87;100954.97;4913181;29;20038;-93
2022/11/12 05:26:40;;;;;;;24.17;12.30;;;;;;;9.83;79.18;100953.84;4899382;29;20031;-93
2022/11/12 05:29:05;;;;;;;23.45;13.95;;;;;;;9.77;79.30;100942.13;4905420;29;20497;-93
2022/11/12 05:31:31;;;;;;;26.88;13.57;;;;;;;9.86;79.13;100948.84;4892834;29;20034;-93
2022/11/12 05:33:57;;;;;;;23.27;13.65;;;;;;;9.97;79.43;100955.34;4917084;29;20028;-93
2022/11/12 05:36:22;;;;;;;22.35;13.38;;;;;;;9.82;80.01;100933.41;4896852;29;20023;-93
2022/11/12 05:38:48;;;;;;;27.23;13.35;;;;;;;9.88;79.03;100935.19;4892538;29;20118;-92
2022/11/12 05:41:13;;;;;;;25.70;13.95;;;;;;;9.82;79.13;100939.59;4893789;29;20467;-93
2022/11/12 05:43:39;;;;;;;25.73;13.40;;;;;;;9.94;78.70;100963.03;4906485;29;20031;-93
2022/11/12 05:46:04;;;;;;;24.23;12.88;;;;;;;10.01;77.94;100967.31;4892196;29;20027;-93
2022/11/12 05:48:30;;;;;;;21.17;12.63;;;;;;;10.05;77.71;100973.06;4903290;29;20044;-93
2022/11/12 05:50:55;;;;;;;25.83;12.80;;;;;;;9.97;78.32;100965.28;4898136;29;20062;-93
2022/11/12 05:53:21;;;;;;;22.40;13.25;;;;;;;10.07;78.64;100974.47;4889627;29;20031;-93
2022/11/12 05:55:46;;;;;;;28.13;14.00;;;;;;;10.11;79.28;100981.06;4907013;29;20031;-93
2022/11/12 05:58:12;;;;;;;22.15;12.20;;;;;;;10.13;79.90;100997.00;4902103;29;20027;-93
2022/11/12 06:00:40;;;;;;;26.65;13.57;;;;;;;10.12;79.84;100992.63;4903224;29;20028;-93
2022/11/12 06:03:09;;;;;;;25.60;14.00;;;;;;;10.14;79.32;100995.94;4900170;29;20030;-93
2022/11/12 06:05:34;;;;;;;24.33;14.25;;;;;;;10.18;79.41;100999.81;4898859;29;20038;-93
2022/11/12 06:08:00;;;;;;;23.23;12.75;;;;;;;10.26;78.07;101018.34;4893721;29;20032;-95
2022/11/12 06:10:26;;;;;;;31.33;13.98;;;;;;;10.20;78.86;101019.25;4889818;29;20024;-92
2022/11/12 06:12:51;;;;;;;25.70;13.23;;;;;;;10.12;79.68;101016.88;4903490;29;20485;-93
2022/11/12 06:15:17;;;;;;;26.50;14.00;;;;;;;10.23;78.24;101028.75;4922324;29;20031;-92
2022/11/12 06:17:43;;;;;;;24.95;13.95;;;;;;;10.20;78.48;101021.94;4919848;29;20030;-93
2022/11/12 06:20:09;;;;;;;23.73;12.50;;;;;;;10.14;77.75;101014.75;4910395;29;20030;-93
2022/11/12 06:22:34;;;;;;;22.27;13.30;;;;;;;10.11;78.04;101015.22;4900504;29;20418;-93
2022/11/12 06:24:59;;;;;;;23.45;13.45;;;;;;;10.16;78.17;101038.78;4908621;29;20024;-93
2022/11/12 06:27:28;;;;;;;23.63;13.85;;;;;;;10.07;78.68;101024.81;4905157;29;20086;-93
2022/11/12 06:29:54;;;;;;;23.92;12.65;;;;;;;9.97;78.37;101008.34;4903505;29;20034;-93
2022/11/12 06:32:19;;;;;;;25.55;12.77;;;;;;;9.98;78.22;101009.97;4912084;29;20023;-92
2022/11/12 06:34:45;;;;;;;24.73;12.15;;;;;;;9.88;78.36;101008.66;4908499;29;20028;-94
2022/11/12 06:37:10;;;;;;;28.83;14.63;;;;;;;9.84;78.47;101006.63;4922656;29;20422;-93
2022/11/12 06:39:35;;;;;;;29.23;16.48;;;;;;;9.85;78.99;101017.16;4914949;29;20026;-93
2022/11/12 06:42:01;;;;;;;34.80;20.95;;;;;;;9.79;79.56;101012.66;4889322;29;20462;-93
2022/11/12 06:44:27;;;;;;;27.98;16.45;;;;;;;9.71;79.38;101007.56;4898540;29;20084;-93
2022/11/12 06:46:52;;;;;;;27.05;13.48;;;;;;;9.64;80.61;101018.41;4909031;29;20033;-93
2022/11/12 06:49:18;;;;;;;24.85;13.88;;;;;;;9.78;80.36;101031.72;4912485;29;20066;-96
2022/11/12 06:51:43;;;;;;;33.63;17.10;;;;;;;9.80;79.14;101024.25;4892813;29;20015;-95
2022/11/12 06:54:09;;;;;;;27.52;15.40;;;;;;;9.82;78.82;101014.91;4899022;29;20035;-95
2022/11/12 06:56:34;;;;;;;27.13;14.77;;;;;;;9.70;78.99;101009.44;4927220;29;20093;-96
2022/11/12 06:59:00;;;;;;;24.77;13.85;;;;;;;9.80;78.83;101014.31;4910493;29;20091;-96
2022/11/12 07:01:25;;;;;;;25.25;13.93;;;;;;;9.76;79.19;101015.00;4910678;29;20059;-95
2022/11/12 07:03:52;;;;;;;26.98;15.63;;;;;;;9.79;78.66;101009.16;4911094;29;20027;-95
2022/11/12 07:06:19;;;;;;;26.10;15.02;;;;;;;9.93;79.02;101010.66;4910689;29;20023;-93
2022/11/12 07:08:50;;;;;;;28.35;15.65;;;;;;;10.03;78.25;101013.66;4896350;29;20031;-93
2022/11/12 07:11:16;;;;;;;27.02;14.40;;;;;;;10.05;78.25;101018.81;4904687;29;20127;-94
2022/11/12 07:13:43;;;;;;;28.90;16.00;;;;;;;10.08;77.68;101016.47;4915058;29;20027;-94
2022/11/12 07:16:09;;;;;;;28.33;16.33;;;;;;;10.07;78.65;101031.00;4899417;29;20118;-94
2022/11/12 07:18:35;;;;;;;26.17;15.50;;;;;;;10.06;78.76;101015.06;4898490;29;20027;-94
2022/11/12 07:21:06;;;;;;;26.95;16.02;;;;;;;10.34;77.34;101035.28;4899272;29;20091;-94
2022/11/12 07:23:32;;;;;;;30.58;16.70;;;;;;;10.16;78.59;101022.63;4901773;29;20024;-94
2022/11/12 07:26:09;;;;;;;29.08;15.60;;;;;;;10.18;77.74;101015.97;4903318;29;20082;-94
2022/11/12 07:28:35;;;;;;;28.88;15.05;;;;;;;10.41;76.98;101027.94;4903072;29;20042;-94
2022/11/12 07:31:02;;;;;;;27.02;16.60;;;;;;;10.23;76.99;101018.81;4909016;29;20028;-94
2022/11/12 07:33:27;;;;;;;27.25;15.55;;;;;;;10.08;78.41;101011.09;4909976;29;20055;-95
2022/11/12 07:36:05;;;;;;;32.47;16.98;;;;;;;10.15;78.27;101015.56;4910328;29;20038;-94
2022/11/12 07:38:32;;;;;;;34.60;16.05;;;;;;;10.18;77.53;101007.88;4902563;29;20060;-92
2022/11/12 07:41:08;;;;;;;24.10;14.45;;;;;;;10.24;77.58;101017.75;4914131;29;20108;-94
2022/11/12 07:43:34;;;;;;;30.95;15.13;;;;;;;10.40;75.95;101018.25;4891343;29;20028;-93
2022/11/12 07:46:04;;;;;;;28.15;14.77;;;;;;;10.50;75.67;101015.81;4922492;29;20055;-94
2022/11/12 07:48:30;;;;;;;27.98;15.52;;;;;;;10.54;75.79;101011.59;4909458;29;20062;-93
2022/11/12 07:51:02;;;;;;;28.92;15.70;;;;;;;10.50;75.44;101015.81;4908635;29;20405;-93
2022/11/12 07:53:28;;;;;;;26.27;14.52;;;;;;;10.48;75.85;101021.44;4911003;29;20019;-95
2022/11/12 07:55:58;;;;;;;25.33;14.38;;;;;;;10.46;76.84;101033.50;4909965;29;20034;-93
2022/11/12 07:58:24;;;;;;;26.30;14.32;;;;;;;10.46;75.50;101012.75;4910087;29;20038;-91
2022/11/12 08:00:50;;;;;;;24.80;14.10;;;;;;;10.40;75.97;101026.31;4925131;29;20481;-95
2022/11/12 08:03:15;;;;;;;27.15;15.65;;;;;;;10.38;75.84;101010.38;4911619;29;20020;-92
2022/11/12 08:05:41;;;;;;;27.27;15.50;;;;;;;10.22;76.42;101010.97;4908901;29;20494;-91
2022/11/12 08:08:06;;;;;;;29.10;14.73;;;;;;;10.18;77.04;101018.66;4909346;29;20035;-91
2022/11/12 08:10:32;;;;;;;30.48;14.10;;;;;;;10.31;76.31;101042.78;4907612;29;20027;-92
2022/11/12 08:12:57;;;;;;;26.13;15.00;;;;;;;10.35;76.41;101045.00;4901311;29;20034;-90
2022/11/12 08:15:23;;;;;;;26.55;14.80;;;;;;;10.26;76.43;101039.88;4906879;29;20159;-91
2022/11/12 08:17:49;;;;;;;27.23;14.75;;;;;;;10.19;77.27;101025.69;4923936;29;20027;-91
2022/11/12 08:20:14;;;;;;;28.73;15.45;;;;;;;10.24;77.89;101033.09;4908226;29;20037;-91
2022/11/12 08:22:40;;;;;;;30.27;15.85;;;;;;;10.26;76.69;101036.38;4902327;29;20038;-90
2022/11/12 08:25:06;;;;;;;29.50;15.27;;;;;;;10.22;77.23;101035.19;4930828;29;20036;-92
2022/11/12 08:27:31;;;;;;;26.35;15.90;;;;;;;10.36;76.86;101047.47;4923130;29;20034;-92
2022/11/12 08:29:57;;;;;;;27.02;15.55;;;;;;;10.37;76.43;101041.03;4908370;29;20487;-92
2022/11/12 08:32:23;;;;;;;26.45;15.50;;;;;;;10.36;76.56;101030.50;4908714;29;20489;-91
2022/11/12 08:34:48;;;;;;;28.10;15.68;;;;;;;10.39;76.31;101052.41;4908219;29;20501;-91
2022/11/12 08:37:14;;;;;;;32.00;15.75;;;;;;;10.30;77.44;101038.41;4908657;29;20038;-92
2022/11/12 08:39:39;;;;;;;26.45;16.02;;;;;;;10.42;76.08;101057.34;4908295;29;20031;-92
2022/11/12 08:42:05;;;;;;;30.92;17.17;;;;;;;10.53;76.23;101066.53;4906902;29;20026;-91
2022/11/12 08:44:30;;;;;;;28.65;14.85;;;;;;;10.45;76.25;101053.38;4904929;29;20023;-91
2022/11/12 08:46:56;;;;;;;28.38;16.38;;;;;;;10.58;75.67;101068.53;4917114;29;20039;-92
2022/11/12 08:49:21;;;;;;;31.10;17.08;;;;;;;10.49;76.25;101057.25;4893654;29;20047;-91
2022/11/12 08:51:47;;;;;;;26.35;16.10;;;;;;;10.43;75.21;101039.31;4903637;29;20028;-91
2022/11/12 08:54:12;;;;;;;26.02;16.10;;;;;;;10.48;75.42;101050.25;4905315;29;20032;-92
2022/11/12 08:56:38;;;;;;;27.55;17.20;;;;;;;10.44;75.73;101040.97;4919682;29;20087;-92
2022/11/12 08:59:04;;;;;;;28.35;15.90;;;;;;;10.53;75.47;101050.38;4920897;29;20050;-92
2022/11/12 09:01:30;;;;;;;30.45;16.85;;;;;;;10.44;76.07;101052.56;4904779;29;20032;-91
2022/11/12 09:03:55;;;;;;;27.30;16.63;;;;;;;10.36;77.11;101049.34;4921685;29;20028;-92
2022/11/12 09:06:21;;;;;;;30.52;16.63;;;;;;;10.45;76.69;101058.75;4940874;29;20027;-92
2022/11/12 09:08:46;;;;;;;32.97;16.55;;;;;;;10.39;76.34;101040.81;4935256;29;20114;-91
2022/11/12 09:11:12;;;;;;;32.10;16.60;;;;;;;10.49;76.34;101052.69;4895592;29;20458;-92
2022/11/12 09:13:37;;;;;;;31.98;17.00;;;;;;;10.46;75.86;101037.00;4901551;29;20117;-93
2022/11/12 09:16:04;;;;;;;28.05;15.40;;;;;;;10.62;76.21;101073.25;4912467;29;20034;-92
2022/11/12 09:18:30;;;;;;;28.48;16.35;;;;;;;10.52;76.47;101059.47;4907854;29;20035;-92
2022/11/12 09:21:09;;;;;;;27.10;16.05;;;;;;;10.52;75.62;101051.41;4907357;29;20042;-92
2022/11/12 09:23:35;;;;;;;30.98;15.93;;;;;;;10.61;75.86;101052.75;4907705;29;20038;-91
2022/11/12 09:26:01;;;;;;;28.70;15.13;;;;;;;10.64;75.80;101052.28;4910012;29;20035;-96
2022/11/12 09:28:27;;;;;;;27.58;15.80;;;;;;;10.59;76.26;101062.13;4912501;29;20493;-95
2022/11/12 09:31:01;;;;;;;27.60;14.98;;;;;;;10.43;76.12;101042.81;4910980;29;20031;-96
2022/11/12 09:33:29;;;;;;;26.45;14.63;;;;;;;10.44;77.13;101041.78;4912325;29;20034;-95
2022/11/12 09:35:55;;;;;;;27.95;16.27;;;;;;;10.57;76.89;101067.72;4907439;29;20529;-92
2022/11/12 09:38:21;;;;;;;31.05;15.77;;;;;;;10.56;76.59;101047.22;4907827;29;20031;-91
2022/11/12 09:40:49;;;;;;;28.65;16.08;;;;;;;10.54;77.33;101062.78;4939327;29;20031;-92
2022/11/12 09:43:36;;;;;;;29.67;15.15;;;;;;;10.50;76.33;101053.53;4939101;29;20039;-92
2022/11/12 09:46:28;;;;;;;34.05;15.65;;;;;;;10.35;76.73;101039.63;4911130;29;20027;-96
2022/11/12 09:49:19;;;;;;;25.65;15.52;;;;;;;10.45;76.51;101051.50;4939818;29;20143;-95
2022/11/12 09:51:54;;;;;;;28.70;15.98;;;;;;;10.47;76.57;101048.59;4924604;29;20038;-95
2022/11/12 09:54:20;;;;;;;28.83;15.25;;;;;;;10.73;75.38;101068.97;4909302;29;20058;-95
2022/11/12 09:56:50;;;;;;;26.55;15.40;;;;;;;10.76;75.37;101055.03;4939969;29;20063;-95
2022/11/12 09:59:15;;;;;;;28.67;15.70;;;;;;;10.62;76.61;101042.78;4908963;29;20386;-94
2022/11/12 10:01:59;;;;;;;30.60;17.45;;;;;;;10.91;75.39;101073.50;4908381;29;20043;-95
2022/11/12 10:04:44;;;;;;;27.75;16.08;;;;;;;10.84;75.76;101053.91;4926663;29;20082;-94
2022/11/12 10:07:47;;;;;;;29.75;17.02;;;;;;;10.91;76.29;101062.72;4918756;29;20039;-94
2022/11/12 10:10:46;;;;;;;34.67;15.68;;;;;;;10.97;76.17;101066.38;4936227;29;20031;-95
2022/11/12 10:13:44;;;;;;;25.70;14.60;;;;;;;10.92;75.30;101062.50;4917002;29;20046;-95
2022/11/12 10:16:43;;;;;;;32.47;17.02;;;;;;;10.91;75.32;101060.84;4907885;29;20078;-92
2022/11/12 10:19:13;;;;;;;29.05;15.70;;;;;;;10.91;76.71;101057.31;4954663;29;20115;-95
2022/11/12 10:21:41;;;;;;;30.80;16.73;;;;;;;10.97;75.66;101052.88;4915690;29;20035;-94
2022/11/12 10:24:10;;;;;;;29.45;16.80;;;;;;;10.81;75.75;101049.81;4934478;29;20031;-94
2022/11/12 10:26:36;;;;;;;26.65;16.42;;;;;;;10.69;75.75;101033.59;4901722;29;20082;-94
2022/11/12 10:29:38;;;;;;;29.45;15.40;;;;;;;10.83;76.32;101054.94;4903056;29;20054;-95
2022/11/12 10:32:03;;;;;;;30.30;16.42;;;;;;;10.75;75.25;101047.19;4916179;29;20035;-95
2022/11/12 10:34:30;;;;;;;34.45;16.10;;;;;;;10.74;75.08;101040.16;4899624;29;20027;-94
2022/11/12 10:37:48;;;;;;;33.63;16.98;;;;;;;10.65;75.77;101048.56;4907849;29;20035;-94
2022/11/12 10:40:45;;;;;;;31.55;16.17;;;;;;;10.60;75.87;101048.41;4938533;29;20031;-96
2022/11/12 10:43:17;;;;;;;27.98;15.90;;;;;;;10.44;76.77;101044.47;4934287;29;20027;-96
2022/11/12 10:45:46;;;;;;;35.22;21.75;;;;;;;10.44;77.39;101024.81;4929487;29;20035;-94
2022/11/12 10:48:42;;;;;;;30.85;16.63;;;;;;;10.56;77.30;101044.50;4906456;29;20031;-94
2022/11/12 10:51:29;;;;;;;33.90;16.65;;;;;;;10.47;76.95;101027.84;4891551;29;20083;-94
2022/11/12 10:53:55;;;;;;;36.70;17.58;;;;;;;10.47;77.07;101030.53;4902736;29;20063;-95
2022/11/12 10:56:30;;;;;;;34.28;17.33;;;;;;;10.46;76.90;101037.00;4908358;29;20031;-92
2022/11/12 10:59:15;;;;;;;30.23;15.60;;;;;;;10.51;76.94;101053.28;4905468;29;20042;-95
2022/11/12 11:01:42;;;;;;;34.30;18.42;;;;;;;10.42;77.04;101038.50;4918099;29;20067;-96
2022/11/12 11:04:30;;;;;;;30.17;16.75;;;;;;;10.49;76.73;101043.78;4893577;29;20062;-93
2022/11/12 11:07:15;;;;;;;27.55;15.23;;;;;;;10.45;77.12;101029.94;4916023;29;20061;-93
2022/11/12 11:09:54;;;;;;;31.33;16.48;;;;;;;10.45;77.80;101029.13;4911785;29;20042;-95
2022/11/12 11:12:28;;;;;;;29.63;16.05;;;;;;;10.53;77.78;101028.81;4908275;29;20106;-95
2022/11/12 11:15:14;;;;;;;26.42;15.05;;;;;;;10.62;76.88;101037.41;4904380;29;20062;-95
2022/11/12 11:17:40;;;;;;;30.85;15.35;;;;;;;10.73;76.89;101036.66;4945705;29;20035;-94
2022/11/12 11:20:19;;;;;;;30.17;16.67;;;;;;;10.74;76.47;101038.28;4906408;29;20035;-94
2022/11/12 11:22:51;;;;;;;32.97;16.60;;;;;;;10.66;76.79;101020.56;4942325;29;20031;-92
2022/11/12 11:25:19;;;;;;;;;;;;;;;10.93;76.33;101044.44;4925728;29;20027;-91
2022/11/12 11:28:15;;;;;;;32.10;16.38;;;;;;;10.96;76.73;101038.59;4941013;29;19910;-91
2022/11/12 11:31:22;;;;;;;27.98;14.82;;;;;;;11.12;76.08;101026.31;4958584;29;20156;-91
2022/11/12 11:34:12;;;;;;;30.33;15.45;;;;;;;11.26;74.99;101040.41;4931439;29;20052;-91
2022/11/12 11:37:16;;;;;;;27.05;14.63;;;;;;;11.24;74.23;101045.22;4941254;29;20023;-91
2022/11/12 11:40:00;;;;;;;26.38;14.75;;;;;;;11.15;75.63;101028.56;4865977;29;20033;-90
2022/11/12 11:42:38;;;;;;;25.50;14.85;;;;;;;11.18;75.51;101038.06;4849296;29;20097;-91
2022/11/12 11:45:15;;;;;;;26.98;14.70;;;;;;;11.25;74.71;101036.91;4916453;29;20046;-90
2022/11/12 11:47:48;;;;;;;24.13;14.00;;;;;;;11.34;73.93;101034.69;4926746;29;20038;-91
2022/11/12 11:50:26;;;;;;;25.95;14.70;;;;;;;11.18;73.70;101016.50;4940977;29;20074;-92
2022/11/12 11:53:03;;;;;;;26.17;14.95;;;;;;;11.24;74.97;101032.56;4910057;29;20027;-91